Agana Heights, GU

10:00 PM ChST on November 27, 2014 (GMT +1000)
Maite | Change Station
CLOSE
Current Station
Personal Weather Station
Location: Maite, GU
Elevation: 140 ft
Nearby Weather Stations

Elev 140 ft 13.48 °N, 144.76 °E | Updated 4 seconds ago

Rain
Rain
82.0 °F
Feels Like 91 °F
N
5.0
Wind Variable Wind from ENE
Gusts 11.0 mph

Today
High -- | Low -- °F
--% Chance of Precip.
Yesterday
High -- | Low -- °F
Precip. -- in
6:25 AM 5:50 PM
Waxing Crescent, 29% visible
Pressure 29.88 in
Visibility 10.0 miles
Clouds Few 1700 ft
Scattered Clouds 4000 ft
Heat Index 91 °F
Dew Point 78 °F
Humidity 89%
Rainfall 0.07 in
Snow Depth Not available.
UV 0.0 out of 12
Pollen Not available.
Air Quality Not available.
Flu Activity Not available.
METAR PGUM 271154Z 06013KT 10SM FEW017 SCT040 28/25 A2990 RMK AO2 SLP116 60000 70006 T02830250 10294 20278 50008 PNO $

More Conditions Fewer Conditions

Pressure 29.88 in
Visibility 10.0 miles
Clouds Few 1700 ft
Scattered Clouds 4000 ft
Heat Index 91 °F
Dew Point 78 °F
Humidity 89%
Rainfall 0.07 in
Snow Depth Not available.
UV 0.0 out of 12
Pollen Not available.
Air Quality Not available.
Flu Activity Not available.
METAR PGUM 271154Z 06013KT 10SM FEW017 SCT040 28/25 A2990 RMK AO2 SLP116 60000 70006 T02830250 10294 20278 50008 PNO $

More Conditions Fewer Conditions

10-Day Weather Forecast

Almanac

Astronomy

Nov. 27, 2014 Rise Set
Actual Time
Civil Twilight
Nautical Twilight
Astronomical Twilight
Moon
Length of Visible Light
Length of Day
Tomorrow will be .
, % of the Moon is Illuminated

Today's Extremes

State Highs State Lows

Community

WunderPhotos

Upload Photos

1,773,975 photos uploaded!

WunderBlogs® & News

Nearby

Air Quality

  Air Quality AQ Index Pollutant
Not available.

Snow Depth

Station Depth Elevation

Earthquake Activity

City Distance Mag. Time & Date
Minimum magnitude displayed is 2.5.

Coastal Water Temperatures

Place Temperature

Nearby Weather Stations